首页
METAR-TAF:

METAR-TAF

机场 :

溫哥華國際機場

溫哥華, 不列颠哥伦比亚, 加拿大

纬度: 49-11N, 经度: 123-10W, 海拔: 3米

当前天气观测

该预报发布于37分钟前的12:00 UTC
风速4节,风向
温度 14°C
湿度 88%
气压 1023 hPa
能見度: 32.2公里
天空无云

METAR: CYVR 181200Z 08004KT 20SM SKC 14/12 A3021 RMK SLP232

时间: 05:37 (12:37 UTC)

预报

该预报发布于59分钟前的11:38 UTC
预报有效从18日的 12点(UTC)到 19日的 18点(UTC)
风速6节,风向
能見度: 10公里
天空无云
成为
从 18日的 19点(UTC)到 18日的 21点(UTC)
风速8节,风向西
从 18日的 2100点(UTC)
风速8节,风向西
能見度: 10公里
天空无云
成为
从 19日的 05点(UTC)到 19日的 07点(UTC)
风速3节,风向多变

TAF: CYVR 181138Z 1812/1918 09006KT P6SM SKC BECMG 1819/1821 28008KT FM182100 28008KT P6SM SKC BECMG 1905/1907 VRB03KT RMK NXT FCST BY 181500Z

超过4000个机场的气象观测和天气预报(METAR&TAF报告)。

可查询的气象台以黄色和红色小点在地图上表示。

将鼠标移到小点上方,可查看气象台名称。

然后点击查看天气观测和预报。

如需切换地图:点击带黑十字的绿色按钮放大地图;点击带横线的绿色按钮缩小地图;或者点击绿色箭头查看邻近地区的地图。


METAR-TAF: